createdAt,value
2022-09-01T00:00:15.836Z,95504.59
2022-09-01T00:02:45.763Z,95496.06
2022-09-01T00:05:14.648Z,95490.66
2022-09-01T00:07:43.518Z,95491.41
2022-09-01T00:10:12.650Z,95494.88
2022-09-01T00:12:41.877Z,95511.06
2022-09-01T00:15:13.602Z,95514.16
2022-09-01T00:17:42.460Z,95522.66
2022-09-01T00:20:11.981Z,95524.97
2022-09-01T00:22:40.812Z,95529.63
2022-09-01T00:25:10.453Z,95532.72
2022-09-01T00:27:39.255Z,95531.56
2022-09-01T00:30:08.940Z,95523.84
2022-09-01T00:32:37.751Z,95510.69
2022-09-01T00:35:07.365Z,95530.00
2022-09-01T00:37:36.235Z,95534.22
2022-09-01T00:40:06.652Z,95531.50
2022-09-01T00:42:35.672Z,95524.13
2022-09-01T00:45:05.793Z,95512.88
2022-09-01T00:47:38.913Z,95508.97
2022-09-01T00:50:10.142Z,95516.72
2022-09-01T00:52:46.732Z,95530.28
2022-09-01T00:55:30.067Z,95532.59
2022-09-01T00:58:04.192Z,95523.69
2022-09-01T01:00:42.010Z,95518.28
2022-09-01T01:03:15.615Z,95515.13
2022-09-01T01:05:59.104Z,95517.81
2022-09-01T01:08:34.724Z,95517.81
2022-09-01T01:11:19.559Z,95528.25
2022-09-01T01:14:12.894Z,95530.56
2022-09-01T01:16:45.367Z,95528.63
2022-09-01T01:19:42.316Z,95526.66
2022-09-01T01:22:38.697Z,95532.78
2022-09-01T01:25:08.434Z,95532.75
2022-09-01T01:27:42.834Z,95530.38
2022-09-01T01:30:14.346Z,95532.25
2022-09-01T01:32:44.364Z,95535.66
2022-09-01T01:35:16.448Z,95530.25
2022-09-01T01:37:49.414Z,95532.56
2022-09-01T01:40:23.376Z,95541.47
2022-09-01T01:42:54.996Z,95536.47
2022-09-01T01:45:25.837Z,95548.03
2022-09-01T01:47:55.409Z,95555.34
2022-09-01T01:50:34.073Z,95554.91
2022-09-01T01:53:10.867Z,95545.50
2022-09-01T01:55:42.398Z,95542.78
2022-09-01T01:58:15.710Z,95546.22
2022-09-01T02:00:49.166Z,95545.75
2022-09-01T02:03:22.536Z,95544.44
2022-09-01T02:05:54.890Z,95539.28
2022-09-01T02:08:26.873Z,95549.19
2022-09-01T02:10:58.421Z,95551.38
2022-09-01T02:13:31.745Z,95553.19
2022-09-01T02:16:04.763Z,95559.22
2022-09-01T02:18:39.872Z,95565.34
2022-09-01T02:21:16.289Z,95563.75
2022-09-01T02:23:49.541Z,95566.81
2022-09-01T02:26:20.514Z,95576.53
2022-09-01T02:28:55.382Z,95579.00
2022-09-01T02:31:36.401Z,95584.16
2022-09-01T02:34:13.200Z,95580.66
2022-09-01T02:36:51.807Z,95582.19
2022-09-01T02:39:35.456Z,95587.91
2022-09-01T02:42:06.604Z,95588.63
2022-09-01T02:44:40.830Z,95595.25
2022-09-01T02:47:11.767Z,95600.25
2022-09-01T02:49:43.080Z,95601.03
2022-09-01T02:52:12.116Z,95602.97
2022-09-01T02:54:42.700Z,95603.97
2022-09-01T02:57:12.611Z,95599.59
2022-09-01T02:59:44.001Z,95616.03
2022-09-01T03:02:13.738Z,95613.50
2022-09-01T03:04:43.194Z,95604.38
2022-09-01T03:07:14.379Z,95606.69
2022-09-01T03:09:44.319Z,95603.00
2022-09-01T03:12:13.213Z,95611.88
2022-09-01T03:14:42.235Z,95607.44
2022-09-01T03:17:11.123Z,95609.63
2022-09-01T03:19:45.101Z,95608.84
2022-09-01T03:22:14.093Z,95617.00
2022-09-01T03:24:43.472Z,95624.25
2022-09-01T03:27:12.620Z,95605.78
2022-09-01T03:29:41.580Z,95606.06
2022-09-01T03:32:11.115Z,95609.59
2022-09-01T03:34:40.452Z,95606.03
2022-09-01T03:37:10.330Z,95610.28
2022-09-01T03:39:39.330Z,95610.97
2022-09-01T03:42:12.038Z,95607.84
2022-09-01T03:44:43.419Z,95607.41
2022-09-01T03:47:16.378Z,95611.13
2022-09-01T03:49:46.241Z,95610.66
2022-09-01T03:52:16.373Z,95609.53
2022-09-01T03:54:46.635Z,95609.16
2022-09-01T03:57:15.866Z,95614.88
2022-09-01T03:59:45.849Z,95611.53
2022-09-01T04:02:15.840Z,95599.63
2022-09-01T04:04:45.213Z,95605.38
2022-09-01T04:07:19.131Z,95610.66
2022-09-01T04:09:48.778Z,95607.69
2022-09-01T04:12:17.912Z,95620.00
2022-09-01T04:14:52.596Z,95614.44
2022-09-01T04:17:40.226Z,95603.59
2022-09-01T04:20:10.010Z,95609.31
2022-09-01T04:22:39.030Z,95608.59
2022-09-01T04:25:09.577Z,95603.84
2022-09-01T04:27:41.162Z,95609.81
2022-09-01T04:30:13.463Z,95609.63
2022-09-01T04:32:47.817Z,95602.91
2022-09-01T04:35:17.860Z,95603.94
2022-09-01T04:37:49.104Z,95606.75
2022-09-01T04:40:19.318Z,95610.75
2022-09-01T04:42:48.490Z,95618.47
2022-09-01T04:45:22.974Z,95619.41
2022-09-01T04:47:52.912Z,95614.69
2022-09-01T04:50:22.695Z,95613.63
2022-09-01T04:53:12.627Z,95613.63
2022-09-01T04:55:49.824Z,95614.09
2022-09-01T04:58:22.665Z,95614.25
2022-09-01T05:00:56.652Z,95604.75
2022-09-01T05:03:26.235Z,95611.53
2022-09-01T05:06:18.351Z,95615.06
2022-09-01T05:08:59.979Z,95618.13
2022-09-01T05:11:49.110Z,95611.09
2022-09-01T05:14:47.885Z,95614.41
2022-09-01T05:17:19.587Z,95617.28
2022-09-01T05:19:51.642Z,95617.09
2022-09-01T05:22:22.752Z,95622.81
2022-09-01T05:25:05.637Z,95620.91
2022-09-01T05:27:34.813Z,95613.09
2022-09-01T05:30:09.091Z,95607.97
2022-09-01T05:32:40.494Z,95610.69
2022-09-01T05:35:11.084Z,95604.59
2022-09-01T05:37:40.442Z,95594.53
2022-09-01T05:40:16.720Z,95598.06
2022-09-01T05:42:48.190Z,95592.94
2022-09-01T05:45:19.538Z,95593.69
2022-09-01T05:47:49.675Z,95596.88
2022-09-01T05:50:19.893Z,95591.09
2022-09-01T05:52:49.537Z,95599.00
2022-09-01T05:55:19.183Z,95600.81
2022-09-01T05:57:49.446Z,95601.09
2022-09-01T06:00:19.526Z,95590.41
2022-09-01T06:02:52.243Z,95596.69
2022-09-01T06:05:23.312Z,95599.69
2022-09-01T06:07:55.939Z,95604.28
2022-09-01T06:10:25.456Z,95597.81
2022-09-01T06:12:54.655Z,95594.88
2022-09-01T06:15:25.468Z,95610.88
2022-09-01T06:17:56.960Z,95595.63
2022-09-01T06:20:27.443Z,95612.97
2022-09-01T06:22:56.677Z,95612.34
2022-09-01T06:25:31.110Z,95608.28
2022-09-01T06:28:01.569Z,95604.69
2022-09-01T06:30:30.771Z,95615.16
2022-09-01T06:33:11.501Z,95605.41
2022-09-01T06:35:47.810Z,95605.97
2022-09-01T06:38:20.216Z,95598.97
2022-09-01T06:40:54.631Z,95602.31
2022-09-01T06:43:24.517Z,95608.41
2022-09-01T06:45:55.504Z,95601.09
2022-09-01T06:48:31.341Z,95602.06
2022-09-01T06:51:22.044Z,95598.06
2022-09-01T06:53:57.415Z,95603.97
2022-09-01T06:56:44.759Z,95586.72
2022-09-01T06:59:14.992Z,95598.97
2022-09-01T07:01:49.994Z,95602.06
2022-09-01T07:04:25.330Z,95592.81
2022-09-01T07:07:53.326Z,95596.19
2022-09-01T07:10:23.714Z,95592.34
2022-09-01T07:13:06.126Z,95591.88
2022-09-01T07:18:39.541Z,95590.88
2022-09-01T07:24:11.161Z,95591.06
2022-09-01T07:27:10.900Z,95598.91
2022-09-01T07:29:41.563Z,95591.53
2022-09-01T07:35:01.667Z,95585.81
2022-09-01T07:43:23.724Z,95582.03
2022-09-01T07:49:29.546Z,95590.22
2022-09-01T07:51:53.680Z,95592.31
2022-09-01T07:54:25.790Z,95578.22
2022-09-01T07:56:56.229Z,95581.41
2022-09-01T07:59:29.115Z,95591.03
2022-09-01T08:02:06.373Z,95583.53
2022-09-01T08:04:36.821Z,95594.63
2022-09-01T08:07:15.447Z,95587.50
2022-09-01T08:09:45.396Z,95597.72
2022-09-01T08:12:17.054Z,95600.25
2022-09-01T08:17:51.410Z,95598.94
2022-09-01T08:20:21.364Z,95606.28
2022-09-01T08:23:11.179Z,95602.97
2022-09-01T08:28:13.693Z,95597.13
2022-09-01T08:30:49.168Z,95601.56
2022-09-01T08:33:26.670Z,95601.28
2022-09-01T08:35:57.680Z,95608.44
2022-09-01T08:38:29.155Z,95613.88
2022-09-01T08:41:01.465Z,95600.91
2022-09-01T08:43:53.426Z,95605.44
2022-09-01T08:46:28.205Z,95608.19
2022-09-01T08:52:32.791Z,95617.56
2022-09-01T08:55:26.524Z,95629.66
2022-09-01T08:57:59.749Z,95635.50
2022-09-01T09:00:37.741Z,95635.78
2022-09-01T09:03:14.847Z,95639.09
2022-09-01T09:06:21.119Z,95647.53
2022-09-01T09:09:04.471Z,95644.69
2022-09-01T09:11:51.691Z,95649.44
2022-09-01T09:14:46.884Z,95658.75
2022-09-01T09:17:20.753Z,95653.00
2022-09-01T09:19:49.685Z,95671.19
2022-09-01T09:22:21.371Z,95666.03
2022-09-01T09:25:10.566Z,95666.03
2022-09-01T09:27:47.880Z,95659.31
2022-09-01T09:30:30.719Z,95678.44
2022-09-01T09:35:58.204Z,95684.97
2022-09-01T09:38:31.496Z,95678.06
2022-09-01T09:41:16.413Z,95679.41
2022-09-01T09:44:02.059Z,95681.88
2022-09-01T09:46:40.986Z,95684.63
2022-09-01T09:49:16.495Z,95692.38
2022-09-01T09:51:49.994Z,95694.75
2022-09-01T09:54:30.899Z,95691.06
2022-09-01T09:57:12.308Z,95686.88
2022-09-01T10:00:00.961Z,95675.31
2022-09-01T10:02:46.849Z,95674.00
2022-09-01T10:05:24.242Z,95684.00
2022-09-01T10:07:56.513Z,95688.13
2022-09-01T10:10:38.849Z,95687.97
2022-09-01T10:13:20.241Z,95679.53
2022-09-01T10:15:52.594Z,95676.47
2022-09-01T10:18:46.935Z,95681.81
2022-09-01T10:21:22.993Z,95680.66
2022-09-01T10:23:51.805Z,95670.94
2022-09-01T10:26:36.187Z,95690.50
2022-09-01T10:29:47.579Z,95698.72
2022-09-01T10:32:37.925Z,95704.38
2022-09-01T10:35:30.448Z,95688.59
2022-09-01T10:38:03.984Z,95692.66
2022-09-01T10:40:49.253Z,95685.72
2022-09-01T10:43:37.851Z,95686.66
2022-09-01T10:46:38.604Z,95690.56
2022-09-01T10:49:34.320Z,95699.56
2022-09-01T10:52:08.571Z,95697.34
2022-09-01T10:54:56.988Z,95712.88
2022-09-01T10:57:42.260Z,95715.69
2022-09-01T11:00:38.429Z,95710.38
2022-09-01T11:06:14.887Z,95712.84
2022-09-01T11:09:06.052Z,95713.69
2022-09-01T11:11:44.271Z,95696.88
2022-09-01T11:14:23.624Z,95708.13
2022-09-01T11:17:14.005Z,95711.63
2022-09-01T11:19:47.156Z,95715.47
2022-09-01T11:22:45.267Z,95711.97
2022-09-01T11:25:40.238Z,95720.91
2022-09-01T11:28:32.275Z,95721.38
2022-09-01T11:31:07.311Z,95724.91
2022-09-01T11:33:45.191Z,95730.38
2022-09-01T11:36:37.439Z,95730.50
2022-09-01T11:39:20.638Z,95733.66
2022-09-01T11:42:04.649Z,95725.63
2022-09-01T11:44:39.517Z,95735.09
2022-09-01T11:47:14.642Z,95738.00
2022-09-01T11:50:00.783Z,95755.25
2022-09-01T11:52:37.889Z,95757.41
2022-09-01T11:55:07.572Z,95757.91
2022-09-01T11:57:41.502Z,95770.88
2022-09-01T12:00:26.040Z,95776.41
2022-09-01T12:02:55.811Z,95785.38
2022-09-01T12:05:32.621Z,95782.75
2022-09-01T12:08:06.654Z,95787.06
2022-09-01T12:10:39.004Z,95796.06
2022-09-01T12:13:24.803Z,95790.31
2022-09-01T12:16:18.082Z,95801.25
2022-09-01T12:18:52.024Z,95805.53
2022-09-01T12:21:35.288Z,95810.63
2022-09-01T12:24:18.785Z,95807.91
2022-09-01T12:26:51.630Z,95810.22
2022-09-01T12:29:24.446Z,95808.63
2022-09-01T12:31:55.404Z,95812.09
2022-09-01T12:34:46.050Z,95824.06
2022-09-01T12:37:25.378Z,95827.13
2022-09-01T12:39:57.969Z,95827.09
2022-09-01T12:42:41.258Z,95824.41
2022-09-01T12:45:11.937Z,95841.78
2022-09-01T12:47:49.945Z,95843.31
2022-09-01T12:50:19.022Z,95846.00
2022-09-01T12:52:56.642Z,95850.59
2022-09-01T12:58:26.524Z,95853.66
2022-09-01T13:01:05.074Z,95862.53
2022-09-01T13:03:34.964Z,95853.66
2022-09-01T13:06:05.285Z,95869.84
2022-09-01T13:08:37.448Z,95859.75
2022-09-01T13:11:11.290Z,95869.41
2022-09-01T13:13:42.442Z,95864.72
2022-09-01T13:16:13.559Z,95858.53
2022-09-01T13:21:35.766Z,95861.63
2022-09-01T13:24:07.413Z,95863.13
2022-09-01T13:26:37.122Z,95860.44
2022-09-01T13:29:06.103Z,95867.75
2022-09-01T13:31:35.651Z,95874.66
2022-09-01T13:34:22.110Z,95877.38
2022-09-01T13:36:52.964Z,95873.94
2022-09-01T13:39:22.787Z,95875.13
2022-09-01T13:41:52.049Z,95880.91
2022-09-01T13:44:20.998Z,95881.28
2022-09-01T13:49:43.611Z,95885.59
2022-09-01T13:52:13.771Z,95877.88
2022-09-01T13:54:45.107Z,95888.34
2022-09-01T13:57:15.236Z,95881.41
2022-09-01T13:59:44.233Z,95877.16
2022-09-01T14:02:13.379Z,95879.09
2022-09-01T14:04:42.875Z,95877.19
2022-09-01T14:07:11.766Z,95867.47
2022-09-01T14:09:40.725Z,95873.69
2022-09-01T14:12:09.480Z,95874.44
2022-09-01T14:17:27.308Z,95875.59
2022-09-01T14:19:57.990Z,95889.09
2022-09-01T14:22:26.922Z,95890.63
2022-09-01T14:24:55.703Z,95897.22
2022-09-01T14:27:24.447Z,95882.53
2022-09-01T14:29:55.004Z,95891.00
2022-09-01T14:32:27.380Z,95892.16
2022-09-01T14:34:57.735Z,95902.59
2022-09-01T14:37:26.825Z,95900.25
2022-09-01T14:39:57.624Z,95901.06
2022-09-01T14:42:29.306Z,95899.13
2022-09-01T14:45:01.021Z,95894.50
2022-09-01T14:47:32.546Z,95899.91
2022-09-01T14:50:03.032Z,95897.56
2022-09-01T14:52:32.070Z,95890.59
2022-09-01T14:55:01.037Z,95894.81
2022-09-01T14:57:38.025Z,95888.25
2022-09-01T15:00:14.740Z,95892.88
2022-09-01T15:02:46.368Z,95888.63
2022-09-01T15:05:15.501Z,95897.13
2022-09-01T15:07:46.120Z,95895.59
2022-09-01T15:10:24.984Z,95891.31
2022-09-01T15:12:57.417Z,95882.84
2022-09-01T15:15:28.838Z,95887.44
2022-09-01T15:17:59.645Z,95885.13
2022-09-01T15:20:47.863Z,95886.69
2022-09-01T15:23:20.263Z,95892.13
2022-09-01T15:25:51.986Z,95892.13
2022-09-01T15:28:21.241Z,95897.13
2022-09-01T15:30:50.765Z,95894.03
2022-09-01T15:33:22.368Z,95894.38
2022-09-01T15:35:51.278Z,95895.16
2022-09-01T15:38:25.990Z,95897.53
2022-09-01T15:40:58.643Z,95892.50
2022-09-01T15:43:30.182Z,95890.94
2022-09-01T15:46:01.237Z,95897.13
2022-09-01T15:48:30.657Z,95896.34
2022-09-01T15:51:21.558Z,95893.22
2022-09-01T15:53:52.790Z,95895.09
2022-09-01T15:56:22.175Z,95885.75
2022-09-01T15:59:00.771Z,95902.69
2022-09-01T16:01:33.924Z,95894.13
2022-09-01T16:04:05.948Z,95897.59
2022-09-01T16:06:35.633Z,95889.84
2022-09-01T16:09:05.485Z,95895.63
2022-09-01T16:11:34.961Z,95885.56
2022-09-01T16:14:05.354Z,95890.22
2022-09-01T16:16:42.122Z,95897.56
2022-09-01T16:19:28.999Z,95897.56
2022-09-01T16:22:16.303Z,95900.63
2022-09-01T16:24:47.900Z,95901.78
2022-09-01T16:27:22.779Z,95895.97
2022-09-01T16:29:56.291Z,95893.25
2022-09-01T16:32:26.665Z,95893.25
2022-09-01T16:34:55.546Z,95897.47
2022-09-01T16:37:33.161Z,95908.66
2022-09-01T16:40:19.827Z,95903.97
2022-09-01T16:42:49.739Z,95900.09
2022-09-01T16:45:40.880Z,95894.97
2022-09-01T16:48:14.776Z,95901.13
2022-09-01T16:51:07.189Z,95896.06
2022-09-01T16:54:03.501Z,95894.97
2022-09-01T16:56:47.948Z,95894.16
2022-09-01T16:59:40.950Z,95893.78
2022-09-01T17:02:25.658Z,95895.72
2022-09-01T17:05:04.426Z,95897.66
2022-09-01T17:08:08.657Z,95891.78
2022-09-01T17:11:07.025Z,95900.72
2022-09-01T17:13:45.491Z,95905.31
2022-09-01T17:16:30.194Z,95901.81
2022-09-01T17:19:06.988Z,95901.41
2022-09-01T17:21:54.528Z,95892.13
2022-09-01T17:24:40.982Z,95895.22
2022-09-01T17:27:46.384Z,95888.72
2022-09-01T17:30:15.751Z,95881.44
2022-09-01T17:32:50.675Z,95875.66
2022-09-01T17:35:22.553Z,95876.09
2022-09-01T17:38:34.139Z,95882.25
2022-09-01T17:41:23.850Z,95885.69
2022-09-01T17:44:29.844Z,95888.00
2022-09-01T17:47:10.272Z,95886.06
2022-09-01T17:50:14.922Z,95882.19
2022-09-01T17:52:52.800Z,95891.50
2022-09-01T17:55:42.098Z,95884.97
2022-09-01T17:58:48.430Z,95891.94
2022-09-01T18:01:43.160Z,95898.09
2022-09-01T18:04:18.680Z,95908.13
2022-09-01T18:07:08.871Z,95895.03
2022-09-01T18:09:44.908Z,95895.44
2022-09-01T18:12:17.961Z,95895.44
2022-09-01T18:15:05.381Z,95906.56
2022-09-01T18:17:39.048Z,95901.56
2022-09-01T18:20:39.046Z,95905.78
2022-09-01T18:23:11.218Z,95900.03
2022-09-01T18:25:43.627Z,95902.38
2022-09-01T18:28:14.132Z,95903.53
2022-09-01T18:31:00.382Z,95908.47
2022-09-01T18:33:39.160Z,95899.56
2022-09-01T18:36:29.710Z,95898.38
2022-09-01T18:39:29.423Z,95908.72
2022-09-01T18:42:29.103Z,95908.19
2022-09-01T18:45:31.902Z,95903.09
2022-09-01T18:48:23.834Z,95901.88
2022-09-01T18:51:14.598Z,95899.09
2022-09-01T18:54:00.991Z,95904.81
2022-09-01T18:56:51.606Z,95909.84
2022-09-01T18:59:45.477Z,95912.47
2022-09-01T19:02:40.354Z,95918.59
2022-09-01T19:05:19.203Z,95913.53
2022-09-01T19:07:57.256Z,95911.59
2022-09-01T19:10:40.018Z,95914.28
2022-09-01T19:13:29.297Z,95910.81
2022-09-01T19:16:24.053Z,95909.69
2022-09-01T19:19:22.125Z,95899.28
2022-09-01T19:21:54.739Z,95890.00
2022-09-01T19:24:47.814Z,95893.03
2022-09-01T19:27:22.431Z,95898.81
2022-09-01T19:29:57.124Z,95895.72
2022-09-01T19:32:29.713Z,95899.09
2022-09-01T19:35:07.192Z,95890.56
2022-09-01T19:37:36.037Z,95900.22
2022-09-01T19:40:07.466Z,95893.72
2022-09-01T19:42:46.518Z,95890.97
2022-09-01T19:45:30.458Z,95890.19
2022-09-01T19:48:15.690Z,95881.34
2022-09-01T19:50:51.260Z,95876.34
2022-09-01T19:53:45.136Z,95867.13
2022-09-01T19:56:22.771Z,95873.72
2022-09-01T19:59:22.531Z,95868.72
2022-09-01T20:02:41.564Z,95868.69
2022-09-01T20:05:22.080Z,95874.84
2022-09-01T20:08:03.376Z,95873.34
2022-09-01T20:10:56.637Z,95874.91
2022-09-01T20:13:52.671Z,95875.66
2022-09-01T20:16:31.680Z,95872.59
2022-09-01T20:19:31.959Z,95871.03
2022-09-01T20:22:31.062Z,95869.91
2022-09-01T20:25:11.324Z,95873.78
2022-09-01T20:27:58.512Z,95868.41
2022-09-01T20:30:32.086Z,95870.31
2022-09-01T20:33:24.355Z,95871.47
2022-09-01T20:36:03.894Z,95868.00
2022-09-01T20:39:13.414Z,95865.63
2022-09-01T20:42:07.185Z,95871.75
2022-09-01T20:44:42.586Z,95867.81
2022-09-01T20:47:13.156Z,95873.59
2022-09-01T20:49:42.029Z,95874.66
2022-09-01T20:52:27.236Z,95876.91
2022-09-01T20:55:13.785Z,95881.22
2022-09-01T20:57:57.098Z,95882.75
2022-09-01T21:00:28.727Z,95880.03
2022-09-01T21:03:12.161Z,95881.56
2022-09-01T21:06:06.046Z,95889.22
2022-09-01T21:08:55.689Z,95888.41
2022-09-01T21:11:27.605Z,95886.09
2022-09-01T21:14:14.068Z,95883.34
2022-09-01T21:17:11.010Z,95888.72
2022-09-01T21:19:49.154Z,95888.72
2022-09-01T21:22:22.319Z,95891.38
2022-09-01T21:24:51.677Z,95896.66
2022-09-01T21:27:27.716Z,95897.00
2022-09-01T21:30:19.765Z,95907.69
2022-09-01T21:32:48.880Z,95903.00
2022-09-01T21:35:20.365Z,95901.44
2022-09-01T21:37:49.561Z,95896.00
2022-09-01T21:40:20.555Z,95894.38
2022-09-01T21:43:01.998Z,95898.69
2022-09-01T21:45:33.569Z,95884.06
2022-09-01T21:48:03.367Z,95879.13
2022-09-01T21:50:32.360Z,95869.09
2022-09-01T21:53:01.700Z,95872.59
2022-09-01T21:55:32.098Z,95872.25
2022-09-01T21:58:00.903Z,95879.16
2022-09-01T22:00:32.842Z,95882.22
2022-09-01T22:03:02.694Z,95880.25
2022-09-01T22:05:31.784Z,95882.88
2022-09-01T22:08:02.073Z,95872.50
2022-09-01T22:10:32.466Z,95877.50
2022-09-01T22:13:04.308Z,95871.00
2022-09-01T22:15:33.437Z,95870.63
2022-09-01T22:18:02.306Z,95865.59
2022-09-01T22:20:32.563Z,95875.19
2022-09-01T22:23:02.780Z,95881.34
2022-09-01T22:25:33.489Z,95874.41
2022-09-01T22:28:04.937Z,95864.38
2022-09-01T22:30:34.525Z,95874.50
2022-09-01T22:33:06.370Z,95869.91
2022-09-01T22:35:35.239Z,95873.78
2022-09-01T22:38:03.971Z,95867.69
2022-09-01T22:40:32.848Z,95857.69
2022-09-01T22:43:01.662Z,95864.25
2022-09-01T22:45:30.474Z,95857.31
2022-09-01T22:47:59.515Z,95863.53
2022-09-01T22:50:28.496Z,95857.38
2022-09-01T22:52:57.540Z,95850.03
2022-09-01T22:55:28.722Z,95852.34
2022-09-01T22:57:57.541Z,95850.44
2022-09-01T23:00:27.773Z,95848.56
2022-09-01T23:02:57.085Z,95854.41
2022-09-01T23:05:26.513Z,95849.06
2022-09-01T23:07:56.289Z,95850.66
2022-09-01T23:10:25.843Z,95848.31
2022-09-01T23:12:55.122Z,95854.91
2022-09-01T23:15:24.286Z,95857.19
2022-09-01T23:17:53.253Z,95861.78
2022-09-01T23:20:22.705Z,95854.84
2022-09-01T23:22:51.655Z,95859.53
2022-09-01T23:25:20.865Z,95857.28
2022-09-01T23:27:49.775Z,95854.59
2022-09-01T23:30:18.698Z,95861.94
2022-09-01T23:32:47.610Z,95860.03
2022-09-01T23:35:16.949Z,95856.97
2022-09-01T23:37:45.874Z,95859.66
2022-09-01T23:40:14.911Z,95870.06
2022-09-01T23:42:43.848Z,95872.03
2022-09-01T23:45:13.319Z,95869.38
2022-09-01T23:47:42.258Z,95871.34
2022-09-01T23:50:11.346Z,95870.97
2022-09-01T23:52:40.186Z,95864.50
2022-09-01T23:55:09.806Z,95868.00
2022-09-01T23:57:38.785Z,95859.91
